createdAt,value
2022-10-07T00:01:28.659Z,99430.19
2022-10-07T00:03:55.163Z,99429.38
2022-10-07T00:06:21.832Z,99439.41
2022-10-07T00:08:49.101Z,99432.22
2022-10-07T00:11:16.793Z,99430.72
2022-10-07T00:13:43.592Z,99430.72
2022-10-07T00:16:14.053Z,99419.97
2022-10-07T00:18:40.520Z,99422.44
2022-10-07T00:21:07.570Z,99421.69
2022-10-07T00:23:34.118Z,99420.16
2022-10-07T00:26:01.689Z,99411.97
2022-10-07T00:28:28.248Z,99415.75
2022-10-07T00:31:01.498Z,99408.28
2022-10-07T00:33:31.499Z,99408.13
2022-10-07T00:35:57.876Z,99403.88
2022-10-07T00:38:24.195Z,99391.09
2022-10-07T00:40:50.510Z,99392.34
2022-10-07T00:43:20.746Z,99393.56
2022-10-07T00:45:47.144Z,99389.78
2022-10-07T00:48:15.989Z,99376.84
2022-10-07T00:50:42.301Z,99388.00
2022-10-07T00:53:09.837Z,99383.31
2022-10-07T00:55:36.142Z,99371.44
2022-10-07T00:58:02.917Z,99374.31
2022-10-07T01:00:30.141Z,99368.91
2022-10-07T01:02:56.461Z,99365.41
2022-10-07T01:05:22.844Z,99360.41
2022-10-07T01:07:49.205Z,99367.13
2022-10-07T01:10:18.663Z,99356.09
2022-10-07T01:12:44.953Z,99353.34
2022-10-07T01:15:32.243Z,99350.38
2022-10-07T01:18:17.777Z,99345.78
2022-10-07T01:20:47.210Z,99341.34
2022-10-07T01:23:19.843Z,99343.84
2022-10-07T01:25:52.130Z,99342.91
2022-10-07T01:28:22.774Z,99338.56
2022-10-07T01:30:50.107Z,99332.06
2022-10-07T01:33:18.931Z,99337.16
2022-10-07T01:35:45.567Z,99340.03
2022-10-07T01:38:11.970Z,99333.88
2022-10-07T01:40:42.931Z,99336.81
2022-10-07T01:43:09.269Z,99316.66
2022-10-07T01:45:36.446Z,99314.66
2022-10-07T01:48:04.023Z,99316.88
2022-10-07T01:50:30.409Z,99319.16
2022-10-07T01:53:04.632Z,99310.53
2022-10-07T01:55:50.453Z,99307.44
2022-10-07T01:58:31.958Z,99307.03
2022-10-07T02:01:13.711Z,99300.22
2022-10-07T02:03:43.244Z,99303.31
2022-10-07T02:06:45.379Z,99295.94
2022-10-07T02:09:15.934Z,99294.03
2022-10-07T02:11:42.277Z,99297.19
2022-10-07T02:14:11.898Z,99291.75
2022-10-07T02:16:42.454Z,99292.78
2022-10-07T02:19:13.821Z,99288.81
2022-10-07T02:21:40.199Z,99278.38
2022-10-07T02:24:06.994Z,99284.81
2022-10-07T02:26:33.824Z,99276.75
2022-10-07T02:29:00.142Z,99270.09
2022-10-07T02:31:27.765Z,99271.34
2022-10-07T02:33:54.193Z,99269.69
2022-10-07T02:36:22.346Z,99274.72
2022-10-07T02:38:48.685Z,99276.00
2022-10-07T02:41:31.215Z,99271.94
2022-10-07T02:43:58.375Z,99270.50
2022-10-07T02:46:26.191Z,99264.88
2022-10-07T02:49:11.556Z,99267.00
2022-10-07T02:51:46.398Z,99265.28
2022-10-07T02:54:12.832Z,99260.88
2022-10-07T02:56:39.195Z,99256.09
2022-10-07T02:59:05.901Z,99250.97
2022-10-07T03:01:34.022Z,99257.91
2022-10-07T03:04:01.273Z,99253.63
2022-10-07T03:06:30.861Z,99253.72
2022-10-07T03:08:57.954Z,99249.97
2022-10-07T03:11:24.378Z,99245.06
2022-10-07T03:13:50.690Z,99246.88
2022-10-07T03:16:17.063Z,99243.50
2022-10-07T03:18:43.386Z,99245.00
2022-10-07T03:21:10.066Z,99249.53
2022-10-07T03:23:36.415Z,99238.94
2022-10-07T03:26:02.765Z,99240.31
2022-10-07T03:28:29.589Z,99236.44
2022-10-07T03:31:03.309Z,99235.66
2022-10-07T03:33:29.739Z,99229.50
2022-10-07T03:35:56.321Z,99230.66
2022-10-07T03:38:22.751Z,99227.47
2022-10-07T03:40:49.821Z,99223.47
2022-10-07T03:43:16.149Z,99222.66
2022-10-07T03:45:43.565Z,99218.66
2022-10-07T03:48:09.895Z,99218.06
2022-10-07T03:50:37.479Z,99224.81
2022-10-07T03:53:04.983Z,99222.34
2022-10-07T03:55:31.311Z,99219.50
2022-10-07T03:57:59.639Z,99218.69
2022-10-07T04:00:26.451Z,99210.28
2022-10-07T04:02:52.910Z,99206.13
2022-10-07T04:05:19.879Z,99203.53
2022-10-07T04:07:47.108Z,99196.78
2022-10-07T04:10:14.423Z,99200.25
2022-10-07T04:12:41.084Z,99202.63
2022-10-07T04:15:07.840Z,99193.38
2022-10-07T04:17:34.345Z,99197.84
2022-10-07T04:20:00.721Z,99193.84
2022-10-07T04:22:27.055Z,99192.84
2022-10-07T04:25:12.086Z,99184.34
2022-10-07T04:27:51.628Z,99190.34
2022-10-07T04:30:18.482Z,99189.16
2022-10-07T04:32:44.817Z,99193.06
2022-10-07T04:35:11.135Z,99186.59
2022-10-07T04:37:37.530Z,99182.31
2022-10-07T04:40:04.000Z,99187.72
2022-10-07T04:42:49.166Z,99178.00
2022-10-07T04:45:15.596Z,99179.88
2022-10-07T04:47:42.194Z,99181.72
2022-10-07T04:50:08.947Z,99183.88
2022-10-07T04:52:35.306Z,99181.34
2022-10-07T04:55:01.654Z,99171.91
2022-10-07T04:57:27.991Z,99173.59
2022-10-07T04:59:54.579Z,99168.94
2022-10-07T05:02:21.042Z,99171.34
2022-10-07T05:04:47.375Z,99167.00
2022-10-07T05:07:13.765Z,99165.16
2022-10-07T05:09:40.219Z,99162.22
2022-10-07T05:12:06.614Z,99161.44
2022-10-07T05:14:33.690Z,99156.94
2022-10-07T05:17:00.092Z,99167.56
2022-10-07T05:19:26.413Z,99165.81
2022-10-07T05:21:52.756Z,99154.13
2022-10-07T05:24:19.115Z,99163.34
2022-10-07T05:26:45.451Z,99156.56
2022-10-07T05:29:11.798Z,99160.09
2022-10-07T05:31:38.247Z,99151.97
2022-10-07T05:34:04.635Z,99157.13
2022-10-07T05:36:30.955Z,99146.59
2022-10-07T05:38:58.072Z,99153.38
2022-10-07T05:41:24.554Z,99154.53
2022-10-07T05:43:50.908Z,99146.22
2022-10-07T05:46:18.306Z,99147.13
2022-10-07T05:48:47.959Z,99151.56
2022-10-07T05:51:14.774Z,99146.63
2022-10-07T05:53:41.542Z,99149.00
2022-10-07T05:56:08.294Z,99148.47
2022-10-07T05:58:36.122Z,99148.97
2022-10-07T06:01:06.841Z,99142.41
2022-10-07T06:03:35.206Z,99147.91
2022-10-07T06:06:01.515Z,99148.84
2022-10-07T06:08:27.916Z,99142.47
2022-10-07T06:11:12.610Z,99138.22
2022-10-07T06:13:38.942Z,99130.22
2022-10-07T06:16:06.368Z,99137.00
2022-10-07T06:18:32.783Z,99139.59
2022-10-07T06:20:59.835Z,99141.81
2022-10-07T06:23:26.344Z,99145.78
2022-10-07T06:25:55.110Z,99144.06
2022-10-07T06:28:21.585Z,99140.03
2022-10-07T06:30:48.720Z,99140.41
2022-10-07T06:33:15.129Z,99140.44
2022-10-07T06:35:41.451Z,99134.59
2022-10-07T06:38:07.834Z,99129.25
2022-10-07T06:40:34.139Z,99139.81
2022-10-07T06:43:00.583Z,99134.78
2022-10-07T06:45:28.122Z,99140.06
2022-10-07T06:47:54.468Z,99133.84
2022-10-07T06:50:21.168Z,99133.69
2022-10-07T06:52:47.535Z,99140.72
2022-10-07T06:55:13.886Z,99136.31
2022-10-07T06:57:56.097Z,99137.50
2022-10-07T07:00:22.588Z,99123.31
2022-10-07T07:02:49.088Z,99128.53
2022-10-07T07:05:15.671Z,99129.69
2022-10-07T07:07:42.163Z,99114.72
2022-10-07T07:10:08.842Z,99119.44
2022-10-07T07:12:35.189Z,99119.78
2022-10-07T07:15:01.573Z,99126.59
2022-10-07T07:17:28.070Z,99115.69
2022-10-07T07:19:54.479Z,99124.81
2022-10-07T07:22:20.808Z,99124.47
2022-10-07T07:24:47.166Z,99123.16
2022-10-07T07:27:15.084Z,99130.00
2022-10-07T07:29:41.688Z,99120.19
2022-10-07T07:32:08.200Z,99124.59
2022-10-07T07:34:36.293Z,99130.41
2022-10-07T07:37:02.618Z,99120.13
2022-10-07T07:39:29.016Z,99116.84
2022-10-07T07:41:55.744Z,99124.44
2022-10-07T07:44:23.438Z,99122.81
2022-10-07T07:46:52.007Z,99123.75
2022-10-07T07:49:18.499Z,99121.06
2022-10-07T07:51:45.216Z,99110.44
2022-10-07T07:54:11.925Z,99117.06
2022-10-07T07:56:38.266Z,99114.91
2022-10-07T07:59:05.107Z,99112.19
2022-10-07T08:01:31.973Z,99110.84
2022-10-07T08:03:58.571Z,99109.53
2022-10-07T08:06:27.766Z,99109.78
2022-10-07T08:08:57.198Z,99107.94
2022-10-07T08:11:23.588Z,99112.34
2022-10-07T08:13:50.010Z,99107.03
2022-10-07T08:16:20.322Z,99110.06
2022-10-07T08:18:47.367Z,99098.13
2022-10-07T08:21:14.023Z,99098.03
2022-10-07T08:23:40.984Z,99106.78
2022-10-07T08:26:07.766Z,99103.13
2022-10-07T08:28:34.274Z,99100.97
2022-10-07T08:31:03.866Z,99099.50
2022-10-07T08:33:31.826Z,99101.63
2022-10-07T08:35:58.642Z,99101.94
2022-10-07T08:38:25.167Z,99102.41
2022-10-07T08:40:52.047Z,99099.44
2022-10-07T08:43:18.626Z,99097.22
2022-10-07T08:45:45.399Z,99096.13
2022-10-07T08:48:17.856Z,99097.97
2022-10-07T08:50:47.050Z,99102.31
2022-10-07T08:53:15.719Z,99094.97
2022-10-07T08:55:46.534Z,99087.66
2022-10-07T08:58:15.955Z,99088.63
2022-10-07T09:00:43.226Z,99082.69
2022-10-07T09:03:28.058Z,99074.47
2022-10-07T09:05:55.591Z,99071.94
2022-10-07T09:08:29.918Z,99065.09
2022-10-07T09:10:56.774Z,99067.28
2022-10-07T09:13:24.395Z,99061.59
2022-10-07T09:15:50.738Z,99055.31
2022-10-07T09:18:27.542Z,99054.72
2022-10-07T09:20:55.022Z,99055.53
2022-10-07T09:23:23.049Z,99048.53
2022-10-07T09:25:49.450Z,99049.09
2022-10-07T09:28:16.479Z,99051.88
2022-10-07T09:30:42.990Z,99052.78
2022-10-07T09:33:13.322Z,99042.22
2022-10-07T09:35:39.654Z,99043.47
2022-10-07T09:38:09.460Z,99047.97
2022-10-07T09:40:35.889Z,99053.41
2022-10-07T09:43:02.867Z,99044.94
2022-10-07T09:45:32.706Z,99047.13
2022-10-07T09:48:09.175Z,99034.00
2022-10-07T09:50:46.674Z,99032.75
2022-10-07T09:53:33.492Z,99030.75
2022-10-07T09:55:59.853Z,99029.16
2022-10-07T09:58:27.166Z,99033.84
2022-10-07T10:00:54.089Z,99030.66
2022-10-07T10:03:20.704Z,99018.84
2022-10-07T10:06:00.298Z,99018.47
2022-10-07T10:08:28.164Z,99021.22
2022-10-07T10:10:55.323Z,99020.81
2022-10-07T10:13:25.531Z,99008.59
2022-10-07T10:15:51.902Z,99009.59
2022-10-07T10:18:25.889Z,99012.63
2022-10-07T10:20:52.211Z,98997.34
2022-10-07T10:23:29.046Z,98996.41
2022-10-07T10:26:14.173Z,98995.03
2022-10-07T10:28:55.142Z,98992.41
2022-10-07T10:31:29.259Z,98995.28
2022-10-07T10:33:59.081Z,98982.88
2022-10-07T10:36:27.117Z,98993.34
2022-10-07T10:39:01.567Z,98984.28
2022-10-07T10:41:36.979Z,98981.31
2022-10-07T10:44:12.347Z,98966.63
2022-10-07T10:46:51.807Z,98978.38
2022-10-07T10:49:27.633Z,98970.50
2022-10-07T10:51:56.927Z,98974.16
2022-10-07T10:54:23.437Z,98974.16
2022-10-07T10:57:04.928Z,98968.50
2022-10-07T10:59:34.329Z,98960.09
2022-10-07T11:02:08.061Z,98958.53
2022-10-07T11:04:45.259Z,98949.78
2022-10-07T11:07:18.223Z,98934.84
2022-10-07T11:09:46.395Z,98937.56
2022-10-07T11:12:23.744Z,98931.69
2022-10-07T11:14:57.744Z,98941.81
2022-10-07T11:17:27.340Z,98923.72
2022-10-07T11:20:04.247Z,98924.56
2022-10-07T11:22:34.447Z,98923.16
2022-10-07T11:25:03.373Z,98918.16
2022-10-07T11:27:30.439Z,98909.84
2022-10-07T11:30:02.922Z,98907.50
2022-10-07T11:32:38.648Z,98914.22
2022-10-07T11:35:13.894Z,98906.63
2022-10-07T11:37:43.177Z,98902.41
2022-10-07T11:40:09.607Z,98890.22
2022-10-07T11:42:43.637Z,98896.09
2022-10-07T11:45:11.743Z,98876.28
2022-10-07T11:47:40.204Z,98867.69
2022-10-07T11:50:08.168Z,98873.34
2022-10-07T11:52:38.148Z,98865.72
2022-10-07T11:55:05.578Z,98863.88
2022-10-07T11:57:33.040Z,98861.25
2022-10-07T12:00:05.939Z,98854.78
2022-10-07T12:02:35.515Z,98847.63
2022-10-07T12:05:02.077Z,98838.81
2022-10-07T12:07:36.340Z,98836.09
2022-10-07T12:10:03.347Z,98835.03
2022-10-07T12:12:42.521Z,98829.00
2022-10-07T12:15:27.638Z,98824.41
2022-10-07T12:18:19.901Z,98822.94
2022-10-07T12:20:46.994Z,98811.44
2022-10-07T12:23:22.214Z,98807.16
2022-10-07T12:26:01.349Z,98801.56
2022-10-07T12:28:35.886Z,98804.16
2022-10-07T12:31:03.165Z,98810.13
2022-10-07T12:33:43.229Z,98796.84
2022-10-07T12:36:18.810Z,98793.91
2022-10-07T12:38:45.789Z,98780.41
2022-10-07T12:41:18.314Z,98789.25
2022-10-07T12:43:49.118Z,98782.34
2022-10-07T12:46:16.989Z,98775.19
2022-10-07T12:48:47.985Z,98777.78
2022-10-07T12:51:19.360Z,98784.31
2022-10-07T12:53:47.489Z,98779.75
2022-10-07T12:56:24.224Z,98778.00
2022-10-07T12:59:12.819Z,98772.75
2022-10-07T13:02:02.568Z,98772.16
2022-10-07T13:04:38.834Z,98763.81
2022-10-07T13:07:29.875Z,98760.41
2022-10-07T13:10:02.389Z,98754.13
2022-10-07T13:12:31.274Z,98763.31
2022-10-07T13:15:03.795Z,98766.63
2022-10-07T13:17:39.373Z,98756.44
2022-10-07T13:20:18.310Z,98757.78
2022-10-07T13:22:45.583Z,98749.72
2022-10-07T13:25:12.055Z,98737.38
2022-10-07T13:27:38.622Z,98745.44
2022-10-07T13:30:06.012Z,98738.97
2022-10-07T13:32:34.210Z,98727.78
2022-10-07T13:35:01.368Z,98726.34
2022-10-07T13:37:31.805Z,98722.06
2022-10-07T13:40:18.091Z,98731.59
2022-10-07T13:42:44.679Z,98725.16
2022-10-07T13:45:14.215Z,98702.91
2022-10-07T13:47:40.553Z,98710.88
2022-10-07T13:50:07.311Z,98711.44
2022-10-07T13:52:40.142Z,98705.28
2022-10-07T13:55:25.155Z,98694.59
2022-10-07T13:57:51.612Z,98694.72
2022-10-07T14:00:17.930Z,98697.63
2022-10-07T14:02:44.538Z,98687.25
2022-10-07T14:05:21.224Z,98686.78
2022-10-07T14:07:51.163Z,98689.50
2022-10-07T14:10:17.471Z,98678.94
2022-10-07T14:12:44.578Z,98674.13
2022-10-07T14:15:21.251Z,98668.53
2022-10-07T14:17:48.313Z,98665.50
2022-10-07T14:20:19.029Z,98670.66
2022-10-07T14:22:47.585Z,98666.19
2022-10-07T14:25:18.723Z,98667.78
2022-10-07T14:27:57.689Z,98659.94
2022-10-07T14:30:55.630Z,98647.38
2022-10-07T14:33:45.809Z,98648.78
2022-10-07T14:36:12.093Z,98641.69
2022-10-07T14:38:38.495Z,98638.19
2022-10-07T14:41:04.797Z,98632.59
2022-10-07T14:43:31.174Z,98622.72
2022-10-07T14:45:57.574Z,98623.16
2022-10-07T14:48:24.023Z,98615.88
2022-10-07T14:50:51.705Z,98618.63
2022-10-07T14:53:18.061Z,98624.56
2022-10-07T14:55:44.398Z,98612.53
2022-10-07T14:58:10.884Z,98617.00
2022-10-07T15:00:39.800Z,98612.31
2022-10-07T15:03:06.399Z,98598.88
2022-10-07T15:05:34.111Z,98592.69
2022-10-07T15:08:04.769Z,98594.66
2022-10-07T15:10:36.321Z,98598.44
2022-10-07T15:13:04.003Z,98593.84
2022-10-07T15:15:31.166Z,98586.44
2022-10-07T15:17:57.504Z,98584.78
2022-10-07T15:20:23.835Z,98577.16
2022-10-07T15:22:50.161Z,98578.19
2022-10-07T15:25:17.939Z,98576.78
2022-10-07T15:27:44.271Z,98573.28
2022-10-07T15:30:10.952Z,98583.44
2022-10-07T15:32:37.306Z,98568.97
2022-10-07T15:35:03.683Z,98569.19
2022-10-07T15:37:30.059Z,98566.69
2022-10-07T15:39:56.445Z,98560.97
2022-10-07T15:42:23.395Z,98562.75
2022-10-07T15:44:49.972Z,98561.19
2022-10-07T15:47:16.952Z,98552.72
2022-10-07T15:49:43.285Z,98552.91
2022-10-07T15:52:11.734Z,98552.81
2022-10-07T15:54:38.302Z,98555.69
2022-10-07T15:57:04.605Z,98548.50
2022-10-07T15:59:30.983Z,98540.53
2022-10-07T16:01:57.389Z,98541.69
2022-10-07T16:04:23.828Z,98540.53
2022-10-07T16:06:53.137Z,98542.84
2022-10-07T16:09:19.819Z,98534.56
2022-10-07T16:11:46.227Z,98536.47
2022-10-07T16:14:12.609Z,98532.13
2022-10-07T16:16:38.988Z,98531.78
2022-10-07T16:19:05.355Z,98534.34
2022-10-07T16:21:32.657Z,98532.16
2022-10-07T16:24:02.965Z,98533.56
2022-10-07T16:26:30.224Z,98540.66
2022-10-07T16:29:16.018Z,98530.06
2022-10-07T16:31:42.649Z,98533.25
2022-10-07T16:34:09.941Z,98530.00
2022-10-07T16:36:36.707Z,98527.00
2022-10-07T16:39:03.614Z,98514.84
2022-10-07T16:41:30.137Z,98516.25
2022-10-07T16:43:57.072Z,98504.94
2022-10-07T16:46:23.505Z,98519.31
2022-10-07T16:48:50.515Z,98505.19
2022-10-07T16:51:20.019Z,98510.41
2022-10-07T16:53:47.196Z,98508.63
2022-10-07T16:56:13.607Z,98508.41
2022-10-07T16:58:40.051Z,98508.19
2022-10-07T17:01:09.443Z,98508.59
2022-10-07T17:03:36.178Z,98508.59
2022-10-07T17:06:02.601Z,98514.53
2022-10-07T17:08:40.387Z,98505.03
2022-10-07T17:11:10.483Z,98506.56
2022-10-07T17:13:38.005Z,98504.38
2022-10-07T17:16:05.869Z,98504.50
2022-10-07T17:18:34.753Z,98503.56
2022-10-07T17:21:01.239Z,98499.06
2022-10-07T17:23:27.825Z,98501.00
2022-10-07T17:25:54.500Z,98500.78
2022-10-07T17:28:21.482Z,98502.53
2022-10-07T17:30:50.592Z,98502.28
2022-10-07T17:33:17.315Z,98495.72
2022-10-07T17:35:45.354Z,98496.97
2022-10-07T17:38:15.339Z,98489.81
2022-10-07T17:40:43.786Z,98492.72
2022-10-07T17:43:10.186Z,98486.81
2022-10-07T17:45:36.839Z,98491.56
2022-10-07T17:48:03.524Z,98486.72
2022-10-07T17:50:30.644Z,98480.81
2022-10-07T17:52:57.391Z,98487.03
2022-10-07T17:55:23.705Z,98492.00
2022-10-07T17:57:50.903Z,98482.78
2022-10-07T18:00:17.609Z,98491.22
2022-10-07T18:02:44.011Z,98493.97
2022-10-07T18:05:10.337Z,98490.63
2022-10-07T18:07:36.713Z,98481.63
2022-10-07T18:10:03.034Z,98488.66
2022-10-07T18:12:48.135Z,98484.28
2022-10-07T18:15:20.253Z,98483.34
2022-10-07T18:17:48.044Z,98481.03
2022-10-07T18:20:15.441Z,98485.53
2022-10-07T18:22:44.021Z,98483.81
2022-10-07T18:25:11.814Z,98481.25
2022-10-07T18:27:42.487Z,98482.75
2022-10-07T18:30:09.412Z,98478.56
2022-10-07T18:32:35.760Z,98478.34
2022-10-07T18:35:02.089Z,98482.19
2022-10-07T18:37:28.473Z,98478.59
2022-10-07T18:39:54.848Z,98475.34
2022-10-07T18:42:21.165Z,98472.13
2022-10-07T18:44:47.708Z,98468.09
2022-10-07T18:47:14.041Z,98463.09
2022-10-07T18:49:40.384Z,98467.00
2022-10-07T18:52:07.320Z,98456.72
2022-10-07T18:54:33.651Z,98454.66
2022-10-07T18:56:59.953Z,98455.34
2022-10-07T18:59:26.251Z,98446.91
2022-10-07T19:01:52.659Z,98458.22
2022-10-07T19:04:19.364Z,98451.19
2022-10-07T19:06:59.989Z,98449.81
2022-10-07T19:09:26.467Z,98443.66
2022-10-07T19:11:52.775Z,98443.81
2022-10-07T19:14:20.013Z,98437.31
2022-10-07T19:16:48.869Z,98444.72
2022-10-07T19:19:17.067Z,98449.78
2022-10-07T19:21:46.536Z,98440.66
2022-10-07T19:24:13.195Z,98448.50
2022-10-07T19:26:42.238Z,98450.25
2022-10-07T19:29:13.075Z,98446.22
2022-10-07T19:31:40.810Z,98444.16
2022-10-07T19:34:07.906Z,98441.81
2022-10-07T19:36:35.350Z,98442.84
2022-10-07T19:39:02.007Z,98446.31
2022-10-07T19:41:31.791Z,98433.03
2022-10-07T19:43:58.243Z,98442.97
2022-10-07T19:46:25.221Z,98442.16
2022-10-07T19:48:52.494Z,98437.75
2022-10-07T19:51:19.376Z,98435.59
2022-10-07T19:53:47.192Z,98429.91
2022-10-07T19:56:17.608Z,98432.06
2022-10-07T19:58:47.686Z,98422.34
2022-10-07T20:01:14.672Z,98413.72
2022-10-07T20:03:41.111Z,98420.88
2022-10-07T20:06:11.209Z,98412.56
2022-10-07T20:08:38.347Z,98415.25
2022-10-07T20:11:04.655Z,98420.59
2022-10-07T20:13:34.732Z,98410.09
2022-10-07T20:16:05.107Z,98410.56
2022-10-07T20:18:32.275Z,98421.06
2022-10-07T20:21:02.325Z,98419.72
2022-10-07T20:23:31.751Z,98414.63
2022-10-07T20:25:58.067Z,98415.25
2022-10-07T20:28:24.473Z,98422.75
2022-10-07T20:30:50.870Z,98422.28
2022-10-07T20:33:17.263Z,98421.31
2022-10-07T20:35:43.581Z,98416.34
2022-10-07T20:38:10.232Z,98415.31
2022-10-07T20:40:55.116Z,98417.47
2022-10-07T20:43:21.443Z,98416.94
2022-10-07T20:45:57.760Z,98411.38
2022-10-07T20:48:25.256Z,98419.50
2022-10-07T20:50:53.566Z,98414.38
2022-10-07T20:53:20.911Z,98417.56
2022-10-07T20:55:47.454Z,98406.03
2022-10-07T20:58:14.898Z,98411.91
2022-10-07T21:00:41.387Z,98408.56
2022-10-07T21:03:07.768Z,98404.28
2022-10-07T21:05:34.281Z,98406.28
2022-10-07T21:08:00.593Z,98397.50
2022-10-07T21:10:26.907Z,98396.81
2022-10-07T21:12:53.236Z,98394.38
2022-10-07T21:15:20.110Z,98386.28
2022-10-07T21:17:48.705Z,98389.06
2022-10-07T21:20:15.057Z,98377.53
2022-10-07T21:22:41.366Z,98387.88
2022-10-07T21:25:11.950Z,98379.69
2022-10-07T21:27:38.550Z,98377.88
2022-10-07T21:30:05.212Z,98379.50
2022-10-07T21:32:31.546Z,98371.88
2022-10-07T21:34:57.883Z,98368.50
2022-10-07T21:37:24.196Z,98361.88
2022-10-07T21:39:50.519Z,98361.19
2022-10-07T21:42:17.059Z,98358.31
2022-10-07T21:44:44.291Z,98362.81
2022-10-07T21:47:10.599Z,98368.34
2022-10-07T21:49:36.905Z,98361.22
2022-10-07T21:52:03.230Z,98356.34
2022-10-07T21:54:30.509Z,98358.56
2022-10-07T21:56:56.813Z,98350.44
2022-10-07T21:59:23.370Z,98355.38
2022-10-07T22:01:49.803Z,98356.75
2022-10-07T22:04:16.658Z,98354.81
2022-10-07T22:07:01.762Z,98353.28
2022-10-07T22:09:28.242Z,98341.88
2022-10-07T22:11:54.541Z,98336.66
2022-10-07T22:14:20.913Z,98337.25
2022-10-07T22:16:48.335Z,98344.28
2022-10-07T22:19:14.716Z,98342.63
2022-10-07T22:21:41.563Z,98336.09
2022-10-07T22:24:08.373Z,98342.34
2022-10-07T22:26:39.445Z,98338.63
2022-10-07T22:29:06.396Z,98330.13
2022-10-07T22:31:32.772Z,98343.00
2022-10-07T22:33:59.423Z,98333.69
2022-10-07T22:36:25.904Z,98331.13
2022-10-07T22:38:52.490Z,98330.13
2022-10-07T22:41:19.352Z,98333.09
2022-10-07T22:43:46.034Z,98326.63
2022-10-07T22:46:13.083Z,98326.72
2022-10-07T22:48:42.959Z,98329.06
2022-10-07T22:51:10.143Z,98326.88
2022-10-07T22:53:36.740Z,98319.34
2022-10-07T22:56:07.060Z,98320.47
2022-10-07T22:58:33.862Z,98318.84
2022-10-07T23:01:03.660Z,98319.34
2022-10-07T23:03:30.061Z,98306.78
2022-10-07T23:05:59.753Z,98310.22
2022-10-07T23:08:26.094Z,98298.81
2022-10-07T23:10:56.732Z,98296.59
2022-10-07T23:13:23.551Z,98294.44
2022-10-07T23:15:56.887Z,98289.88
2022-10-07T23:18:23.256Z,98277.09
2022-10-07T23:20:57.010Z,98281.94
2022-10-07T23:23:25.275Z,98280.13
2022-10-07T23:25:52.048Z,98284.69
2022-10-07T23:28:19.226Z,98277.56
2022-10-07T23:30:45.729Z,98271.16
2022-10-07T23:33:13.778Z,98276.75
2022-10-07T23:35:40.468Z,98275.81
2022-10-07T23:38:07.392Z,98272.53
2022-10-07T23:40:33.711Z,98279.75
2022-10-07T23:43:00.039Z,98277.34
2022-10-07T23:45:27.342Z,98266.47
2022-10-07T23:47:53.657Z,98270.91
2022-10-07T23:50:20.675Z,98264.19
2022-10-07T23:52:47.528Z,98255.00
2022-10-07T23:55:14.171Z,98267.88
2022-10-07T23:57:40.483Z,98265.66
